Time;durP1;ratioP1;P1;durP2;ratioP2;P2;SDS_P1;SDS_P2;PMS_P1;PMS_P2;Temp;Humidity;BMP_temperature;BMP_pressure;BME280_temperature;BME280_humidity;BME280_pressure;Samples;Min_cycle;Max_cycle;Signal;HPM_P1;HPM_P2
2023/06/01 00:01:04;;;;;;;24.23;22.17;;;11.10;99.90;;;;;;4985700;28;20046;-75
2023/06/01 00:03:31;;;;;;;23.67;21.60;;;11.00;99.90;;;;;;4950799;28;20058;-75
2023/06/01 00:05:58;;;;;;;23.35;21.35;;;10.90;99.90;;;;;;4968290;28;20248;-74
2023/06/01 00:08:25;;;;;;;23.23;21.15;;;10.90;99.90;;;;;;4965977;28;20679;-74
2023/06/01 00:10:52;;;;;;;23.10;21.17;;;10.80;99.90;;;;;;4974526;28;20093;-75
2023/06/01 00:13:19;;;;;;;21.95;20.23;;;10.80;99.90;;;;;;4964745;28;20656;-74
2023/06/01 00:15:46;;;;;;;23.27;20.85;;;10.80;99.90;;;;;;4967156;28;20121;-75
2023/06/01 00:18:15;;;;;;;22.50;20.52;;;10.60;99.90;;;;;;4960168;28;20043;-76
2023/06/01 00:20:41;;;;;;;22.88;21.02;;;10.60;99.90;;;;;;4969990;28;20055;-75
2023/06/01 00:23:08;;;;;;;22.60;20.65;;;10.60;99.90;;;;;;4972245;28;20149;-74
2023/06/01 00:25:35;;;;;;;21.17;19.20;;;10.60;99.90;;;;;;4972279;28;20271;-74
2023/06/01 00:28:02;;;;;;;21.27;19.38;;;10.50;99.90;;;;;;4972144;28;20512;-74
2023/06/01 00:30:29;;;;;;;21.92;19.55;;;10.30;99.90;;;;;;4984211;28;20073;-74
2023/06/01 00:32:56;;;;;;;21.23;19.15;;;10.20;99.90;;;;;;4964159;28;20269;-74
2023/06/01 00:35:23;;;;;;;21.35;19.55;;;10.20;99.90;;;;;;4966611;28;20736;-74
2023/06/01 00:37:50;;;;;;;21.67;18.95;;;10.20;99.90;;;;;;4970539;28;20042;-74
2023/06/01 00:40:17;;;;;;;20.48;18.77;;;10.00;99.90;;;;;;4957117;28;20101;-74
2023/06/01 00:42:44;;;;;;;20.40;18.77;;;10.00;99.90;;;;;;4974444;28;20101;-75
2023/06/01 00:45:11;;;;;;;22.17;19.98;;;10.00;99.90;;;;;;4981252;28;20461;-74
2023/06/01 00:47:43;;;;;;;20.13;18.08;;;10.00;99.90;;;;;;4972010;28;20042;-74
2023/06/01 00:50:12;;;;;;;20.77;19.05;;;9.90;99.90;;;;;;4965517;28;20072;-74
2023/06/01 00:52:40;;;;;;;21.30;19.08;;;9.80;99.90;;;;;;4973084;28;20129;-74
2023/06/01 00:55:07;;;;;;;23.17;19.73;;;9.70;99.90;;;;;;4971171;28;20511;-74
2023/06/01 00:57:35;;;;;;;21.45;19.45;;;9.70;99.90;;;;;;4971655;28;20555;-74
2023/06/01 01:00:10;;;;;;;20.55;18.77;;;9.80;99.90;;;;;;4983326;28;20493;-74
2023/06/01 01:02:38;;;;;;;22.30;20.38;;;9.70;99.90;;;;;;4967694;28;20046;-74
2023/06/01 01:05:12;;;;;;;22.35;20.25;;;9.50;99.90;;;;;;4955630;28;20046;-74
2023/06/01 01:07:55;;;;;;;20.88;19.05;;;9.40;99.90;;;;;;4974621;28;20340;-74
2023/06/01 01:10:49;;;;;;;21.27;19.17;;;9.40;99.90;;;;;;4963535;28;20134;-74
2023/06/01 01:13:27;;;;;;;20.90;19.08;;;9.50;99.90;;;;;;4967123;28;20039;-74
2023/06/01 01:16:02;;;;;;;20.55;18.65;;;9.50;99.90;;;;;;4968972;28;20982;-74
2023/06/01 01:18:39;;;;;;;;;;;9.40;99.90;;;;;;4966972;28;20689;-74
2023/06/01 01:21:21;;;;;;;18.95;17.33;;;9.30;99.90;;;;;;4967885;28;19922;-74
2023/06/01 01:23:59;;;;;;;19.52;17.67;;;9.20;99.90;;;;;;4967978;28;20053;-75
2023/06/01 01:27:03;;;;;;;20.45;18.38;;;9.30;99.90;;;;;;4959454;28;20137;-76
2023/06/01 01:29:32;;;;;;;21.60;19.50;;;9.30;99.90;;;;;;4966379;28;20047;-73
2023/06/01 01:32:03;;;;;;;21.77;19.58;;;9.20;99.90;;;;;;4975850;28;20522;-74
2023/06/01 01:34:31;;;;;;;26.67;19.63;;;9.10;99.90;;;;;;4980284;28;20058;-74
2023/06/01 01:36:58;;;;;;;19.67;17.60;;;9.10;99.90;;;;;;4989470;28;20042;-74
2023/06/01 01:39:25;;;;;;;18.58;16.88;;;9.00;99.90;;;;;;4979265;28;20173;-74
2023/06/01 01:41:52;;;;;;;18.33;16.85;;;8.80;99.90;;;;;;4969389;28;20054;-74
2023/06/01 01:44:19;;;;;;;24.80;18.70;;;8.80;99.90;;;;;;4990048;28;20101;-74
2023/06/01 01:46:49;;;;;;;21.35;19.27;;;8.80;99.90;;;;;;4970305;28;20198;-74
2023/06/01 01:49:29;;;;;;;21.13;18.88;;;8.80;99.90;;;;;;4981867;28;20050;-74
2023/06/01 01:52:15;;;;;;;22.00;19.73;;;8.70;99.90;;;;;;4969966;28;20046;-74
2023/06/01 01:54:44;;;;;;;20.80;18.88;;;8.60;99.90;;;;;;4967031;28;20097;-74
2023/06/01 01:57:14;;;;;;;22.55;20.02;;;8.50;99.90;;;;;;4965006;28;20045;-74
2023/06/01 01:59:43;;;;;;;20.88;19.05;;;8.50;99.90;;;;;;4951515;28;20054;-75
2023/06/01 02:02:10;;;;;;;20.98;19.13;;;8.40;99.90;;;;;;4964070;28;20051;-74
2023/06/01 02:04:42;;;;;;;21.20;19.48;;;8.30;99.90;;;;;;4965844;28;20113;-76
2023/06/01 02:07:10;;;;;;;22.63;19.83;;;8.30;99.90;;;;;;4962568;28;20355;-74
2023/06/01 02:09:38;;;;;;;21.60;19.70;;;8.40;99.90;;;;;;4969214;28;20656;-74
2023/06/01 02:12:06;;;;;;;21.90;20.00;;;8.20;99.90;;;;;;4969316;28;20144;-74
2023/06/01 02:14:34;;;;;;;22.73;20.42;;;8.30;99.90;;;;;;4965849;28;20076;-74
2023/06/01 02:17:01;;;;;;;21.38;19.58;;;8.20;99.90;;;;;;4966577;28;20055;-74
2023/06/01 02:19:28;;;;;;;22.58;20.48;;;8.10;99.90;;;;;;4945018;28;20405;-74
2023/06/01 02:21:55;;;;;;;22.30;20.50;;;8.00;99.90;;;;;;4969273;28;20587;-73
2023/06/01 02:24:22;;;;;;;21.75;19.85;;;8.00;99.90;;;;;;4967100;28;20444;-74
2023/06/01 02:26:51;;;;;;;23.65;21.35;;;8.20;99.90;;;;;;4969815;28;20444;-74
2023/06/01 02:29:21;;;;;;;31.48;21.63;;;8.10;99.90;;;;;;4962353;28;20046;-71
2023/06/01 02:31:50;;;;;;;22.85;20.83;;;8.00;99.90;;;;;;4961894;28;20194;-76
2023/06/01 02:34:18;;;;;;;22.63;20.58;;;7.90;99.90;;;;;;4962959;28;20111;-76
2023/06/01 02:36:46;;;;;;;22.42;20.38;;;7.90;99.90;;;;;;4964065;28;20050;-74
2023/06/01 02:39:14;;;;;;;22.83;20.48;;;7.80;99.90;;;;;;4966662;28;20093;-76
2023/06/01 02:41:41;;;;;;;22.13;19.95;;;7.90;99.90;;;;;;4968304;28;20508;-75
2023/06/01 02:44:08;;;;;;;21.15;19.17;;;8.00;99.90;;;;;;4966890;28;20606;-73
2023/06/01 02:46:34;;;;;;;21.95;19.75;;;7.70;99.90;;;;;;4965329;28;20078;-75
2023/06/01 02:49:01;;;;;;;21.90;19.85;;;7.60;99.90;;;;;;4962723;28;20538;-75
2023/06/01 02:51:28;;;;;;;20.83;18.63;;;7.80;99.90;;;;;;4978087;28;20133;-74
2023/06/01 02:54:11;;;;;;;21.52;19.45;;;7.70;99.90;;;;;;4969738;28;20038;-74
2023/06/01 02:56:37;;;;;;;22.85;20.75;;;7.60;99.90;;;;;;4962861;28;20100;-73
2023/06/01 02:59:30;;;;;;;24.27;21.70;;;7.50;99.90;;;;;;4958226;28;20058;-76
2023/06/01 03:02:01;;;;;;;24.73;21.83;;;7.70;99.90;;;;;;4968806;28;20045;-75
2023/06/01 03:04:32;;;;;;;25.48;22.05;;;7.60;99.90;;;;;;4966112;28;20421;-76
2023/06/01 03:07:01;;;;;;;28.27;21.92;;;7.70;99.90;;;;;;4964022;28;20134;-76
2023/06/01 03:09:36;;;;;;;22.20;20.02;;;7.60;99.90;;;;;;4962181;28;20619;-75
2023/06/01 03:12:32;;;;;;;21.02;18.98;;;7.60;99.90;;;;;;4978019;28;20231;-75
2023/06/01 03:14:59;;;;;;;19.88;17.75;;;7.50;99.90;;;;;;4974210;28;20042;-75
2023/06/01 03:17:26;;;;;;;19.48;17.60;;;7.60;99.90;;;;;;4964205;28;20050;-75
2023/06/01 03:19:53;;;;;;;19.63;17.85;;;7.60;99.90;;;;;;4969960;28;20082;-75
2023/06/01 03:22:22;;;;;;;19.75;17.75;;;7.70;99.90;;;;;;4956087;28;20093;-75
2023/06/01 03:24:52;;;;;;;21.48;17.27;;;7.70;99.90;;;;;;4969349;28;20042;-75
2023/06/01 03:27:24;;;;;;;19.38;17.67;;;7.80;99.90;;;;;;4977964;28;20469;-76
2023/06/01 03:29:51;;;;;;;18.35;16.52;;;7.90;99.90;;;;;;4956259;28;20452;-75
2023/06/01 03:32:18;;;;;;;21.40;18.80;;;7.90;99.90;;;;;;4967133;28;20062;-76
2023/06/01 03:34:46;;;;;;;22.63;18.98;;;7.90;99.90;;;;;;4951869;28;20100;-74
2023/06/01 03:37:13;;;;;;;22.58;18.27;;;7.90;99.90;;;;;;4953690;28;20080;-76
2023/06/01 03:39:40;;;;;;;24.88;18.02;;;8.10;99.90;;;;;;4964529;28;20069;-75
2023/06/01 03:42:10;;;;;;;21.08;18.88;;;8.20;99.90;;;;;;4968973;28;20038;-75
2023/06/01 03:44:40;;;;;;;40.50;22.35;;;8.30;99.90;;;;;;4951961;28;20388;-76
2023/06/01 03:47:08;;;;;;;45.67;22.90;;;8.40;99.90;;;;;;4967292;28;20064;-75
2023/06/01 03:49:34;;;;;;;45.85;24.50;;;8.40;99.90;;;;;;4960770;28;20076;-75
2023/06/01 03:52:05;;;;;;;37.70;23.30;;;8.60;99.90;;;;;;4964418;28;20070;-75
2023/06/01 03:54:33;;;;;;;48.08;26.50;;;8.70;99.90;;;;;;4964084;28;20043;-76
2023/06/01 03:57:00;;;;;;;52.28;27.05;;;8.70;99.90;;;;;;4966410;28;20173;-76
2023/06/01 03:59:27;;;;;;;43.92;24.27;;;8.60;99.90;;;;;;4957126;28;20420;-75
2023/06/01 04:01:55;;;;;;;49.38;28.05;;;8.70;99.90;;;;;;4966159;28;20485;-75
2023/06/01 04:04:28;;;;;;;44.97;26.80;;;8.60;99.90;;;;;;4968540;28;20061;-75
2023/06/01 04:07:02;;;;;;;50.88;26.38;;;8.70;99.90;;;;;;4967406;28;20320;-76
2023/06/01 04:09:30;;;;;;;47.90;26.92;;;8.70;99.90;;;;;;4963571;28;20059;-76
2023/06/01 04:11:57;;;;;;;48.58;27.00;;;8.80;99.90;;;;;;4964208;28;20035;-74
2023/06/01 04:14:23;;;;;;;42.78;25.80;;;8.80;99.90;;;;;;4968627;28;20065;-76
2023/06/01 04:16:50;;;;;;;42.28;26.25;;;8.90;99.90;;;;;;4949625;28;20080;-75
2023/06/01 04:19:17;;;;;;;41.67;24.20;;;8.90;99.90;;;;;;4966018;28;20117;-75
2023/06/01 04:21:50;;;;;;;35.83;24.10;;;9.00;99.90;;;;;;4972856;28;20505;-76
2023/06/01 04:24:17;;;;;;;41.00;24.80;;;9.10;99.90;;;;;;4984833;28;20133;-76
2023/06/01 04:26:44;;;;;;;40.88;25.23;;;9.10;99.90;;;;;;4983374;28;20612;-73
2023/06/01 04:29:11;;;;;;;51.95;24.70;;;9.10;99.90;;;;;;4960006;28;20034;-76
2023/06/01 04:31:39;;;;;;;40.47;22.67;;;9.10;99.90;;;;;;4977157;28;20069;-75
2023/06/01 04:34:06;;;;;;;40.67;24.33;;;9.20;99.90;;;;;;4985071;28;20053;-74
2023/06/01 04:36:38;;;;;;;44.13;24.10;;;9.10;99.90;;;;;;4951642;28;20074;-74
2023/06/01 04:39:07;;;;;;;39.70;24.63;;;9.10;99.90;;;;;;4970080;28;20042;-74
2023/06/01 04:41:37;;;;;;;34.47;22.77;;;9.30;99.90;;;;;;4984106;28;20050;-74
2023/06/01 04:44:05;;;;;;;38.60;23.23;;;9.40;99.90;;;;;;4954818;28;20058;-74
2023/06/01 04:46:32;;;;;;;50.22;25.33;;;9.30;99.90;;;;;;4969050;28;20047;-74
2023/06/01 04:49:00;;;;;;;38.05;26.65;;;9.20;99.90;;;;;;4971340;28;20065;-74
2023/06/01 04:51:29;;;;;;;36.85;22.98;;;9.10;99.90;;;;;;4964672;28;20062;-77
2023/06/01 04:53:55;;;;;;;33.40;20.15;;;9.10;99.90;;;;;;4969476;28;20077;-75
2023/06/01 04:56:24;;;;;;;36.20;22.73;;;8.90;99.90;;;;;;4968761;28;20030;-75
2023/06/01 04:58:55;;;;;;;34.95;21.63;;;8.80;99.90;;;;;;4972560;28;20303;-74
2023/06/01 05:01:24;;;;;;;38.70;22.48;;;8.70;99.90;;;;;;4979591;28;20043;-75
2023/06/01 05:03:54;;;;;;;36.72;22.83;;;8.60;99.90;;;;;;4969680;28;20129;-75
2023/06/01 05:06:21;;;;;;;35.67;22.83;;;8.70;99.90;;;;;;4966846;28;20038;-75
2023/06/01 05:08:48;;;;;;;34.08;21.55;;;9.00;99.90;;;;;;4985063;28;20558;-75
2023/06/01 05:11:15;;;;;;;29.45;20.58;;;9.00;99.90;;;;;;4974502;28;20042;-75
2023/06/01 05:13:44;;;;;;;33.45;22.55;;;9.00;99.90;;;;;;4975346;28;20039;-75
2023/06/01 05:16:11;;;;;;;31.60;20.85;;;9.20;99.90;;;;;;4982746;28;20047;-76
2023/06/01 05:18:38;;;;;;;31.45;23.17;;;9.20;99.90;;;;;;4949506;28;20042;-75
2023/06/01 05:21:05;;;;;;;31.25;22.33;;;9.30;99.90;;;;;;4968663;28;20125;-75
2023/06/01 05:23:32;;;;;;;35.78;22.35;;;9.30;99.90;;;;;;4967346;28;20054;-76
2023/06/01 05:26:02;;;;;;;30.13;23.00;;;9.30;99.90;;;;;;4967586;28;20550;-76
2023/06/01 05:28:35;;;;;;;29.17;21.60;;;9.30;99.90;;;;;;4965669;28;20071;-76
2023/06/01 05:31:03;;;;;;;27.70;20.77;;;9.30;99.90;;;;;;4968306;28;20129;-76
2023/06/01 05:33:36;;;;;;;28.38;21.85;;;9.30;99.90;;;;;;4982567;28;20035;-76
2023/06/01 05:36:03;;;;;;;28.70;22.35;;;9.30;99.90;;;;;;4969484;28;20544;-76
2023/06/01 05:38:30;;;;;;;30.48;23.20;;;9.40;99.90;;;;;;4978451;28;20223;-77
2023/06/01 05:40:57;;;;;;;33.03;24.60;;;9.50;99.90;;;;;;4967976;28;20047;-76
2023/06/01 05:43:24;;;;;;;32.08;23.65;;;9.60;99.90;;;;;;4975250;28;20073;-76
2023/06/01 05:45:51;;;;;;;26.85;23.02;;;9.50;99.90;;;;;;4963287;28;20054;-76
2023/06/01 05:48:18;;;;;;;30.45;23.65;;;9.70;99.90;;;;;;4971873;28;20049;-75
2023/06/01 05:50:50;;;;;;;31.17;23.77;;;9.70;99.90;;;;;;4948471;28;20907;-76
2023/06/01 05:53:17;;;;;;;33.97;24.88;;;9.70;99.90;;;;;;4971412;28;20038;-74
2023/06/01 05:55:44;;;;;;;34.75;24.10;;;9.70;99.90;;;;;;4964514;28;20471;-75
2023/06/01 05:58:11;;;;;;;41.50;25.58;;;9.60;99.90;;;;;;4973428;28;20050;-75
2023/06/01 06:00:38;;;;;;;34.45;26.00;;;9.60;99.90;;;;;;4969144;28;20050;-75
2023/06/01 06:03:05;;;;;;;34.53;25.13;;;9.70;99.90;;;;;;4972557;28;20050;-75
2023/06/01 06:05:32;;;;;;;33.67;25.73;;;9.80;99.90;;;;;;4961849;28;20047;-76
2023/06/01 06:07:59;;;;;;;33.65;25.02;;;9.90;99.90;;;;;;4964271;28;20441;-76
2023/06/01 06:10:25;;;;;;;32.38;24.25;;;9.90;99.90;;;;;;4965636;28;20069;-76
2023/06/01 06:12:52;;;;;;;31.67;24.95;;;9.80;99.90;;;;;;4960890;28;20070;-76
2023/06/01 06:15:19;;;;;;;34.40;22.98;;;9.60;99.90;;;;;;4962231;28;20055;-75
2023/06/01 06:17:46;;;;;;;33.75;24.10;;;9.60;99.90;;;;;;4972676;28;20053;-76
2023/06/01 06:20:15;;;;;;;34.22;23.77;;;9.70;99.90;;;;;;4972356;28;20042;-76
2023/06/01 06:22:42;;;;;;;33.20;24.42;;;9.80;99.90;;;;;;4982876;28;20050;-76
2023/06/01 06:25:11;;;;;;;32.53;25.27;;;9.70;99.90;;;;;;4994867;28;20061;-76
2023/06/01 06:27:38;;;;;;;32.65;24.25;;;9.60;99.90;;;;;;4965185;28;20460;-77
2023/06/01 06:30:06;;;;;;;33.60;24.13;;;9.70;99.90;;;;;;4959381;28;20053;-76
2023/06/01 06:32:34;;;;;;;32.70;25.92;;;9.90;99.90;;;;;;4952077;28;20120;-76
2023/06/01 06:35:01;;;;;;;29.48;24.33;;;10.00;99.90;;;;;;4965407;28;20046;-75
2023/06/01 06:37:29;;;;;;;32.60;26.30;;;10.20;99.90;;;;;;4970599;28;20092;-76
2023/06/01 06:39:56;;;;;;;29.17;26.00;;;10.40;99.90;;;;;;4971298;28;20069;-76
2023/06/01 06:42:24;;;;;;;37.53;25.60;;;10.50;99.90;;;;;;4963438;28;20132;-76
2023/06/01 06:44:50;;;;;;;35.60;26.55;;;10.50;99.90;;;;;;4959607;28;20476;-76
2023/06/01 06:47:19;;;;;;;36.08;27.83;;;10.50;99.90;;;;;;4967717;28;20080;-76
2023/06/01 06:49:46;;;;;;;31.77;28.48;;;10.30;99.90;;;;;;4958821;28;20046;-76
2023/06/01 06:52:13;;;;;;;32.78;28.10;;;10.30;99.90;;;;;;4961620;28;20081;-76
2023/06/01 06:54:42;;;;;;;32.40;28.20;;;10.50;99.90;;;;;;4964404;28;20051;-76
2023/06/01 06:57:10;;;;;;;34.17;28.55;;;10.60;99.90;;;;;;4954684;28;20176;-76
2023/06/01 06:59:37;;;;;;;31.92;28.42;;;10.60;99.90;;;;;;4957175;28;20058;-76
2023/06/01 07:02:04;;;;;;;34.90;30.25;;;10.70;99.90;;;;;;4967497;28;20058;-76
2023/06/01 07:04:31;;;;;;;31.85;28.55;;;10.70;99.90;;;;;;4961826;28;20137;-76
2023/06/01 07:06:57;;;;;;;37.58;28.35;;;10.70;99.90;;;;;;4970553;28;20066;-76
2023/06/01 07:09:24;;;;;;;34.75;30.17;;;10.80;99.90;;;;;;4964829;28;20070;-76
2023/06/01 07:11:51;;;;;;;35.35;30.65;;;11.00;99.90;;;;;;4963197;28;21182;-76
2023/06/01 07:14:17;;;;;;;35.10;30.42;;;11.10;99.90;;;;;;4963864;28;20130;-76
2023/06/01 07:16:44;;;;;;;39.63;31.10;;;11.10;99.90;;;;;;4962556;28;20560;-76
2023/06/01 07:19:12;;;;;;;44.60;32.85;;;11.20;99.90;;;;;;4962823;28;20038;-76
2023/06/01 07:21:39;;;;;;;36.38;30.85;;;11.30;99.90;;;;;;4963154;28;20208;-75
2023/06/01 07:24:06;;;;;;;35.00;30.95;;;11.40;99.90;;;;;;4967601;28;20483;-75
2023/06/01 07:26:33;;;;;;;34.25;30.77;;;11.50;99.90;;;;;;4980045;28;20035;-76
2023/06/01 07:29:00;;;;;;;37.90;30.80;;;11.40;99.90;;;;;;4964474;28;20531;-76
2023/06/01 07:31:29;;;;;;;34.95;31.13;;;11.30;99.90;;;;;;4966800;28;20070;-75
2023/06/01 07:33:56;;;;;;;35.70;31.88;;;11.30;99.90;;;;;;4963251;28;20047;-75
2023/06/01 07:36:23;;;;;;;35.75;32.08;;;11.50;99.90;;;;;;4966808;28;20045;-76
2023/06/01 07:38:53;;;;;;;36.85;33.28;;;11.70;99.90;;;;;;4964070;28;20062;-75
2023/06/01 07:41:20;;;;;;;36.65;32.97;;;11.80;99.90;;;;;;4963952;28;20042;-75
2023/06/01 07:43:47;;;;;;;35.72;31.98;;;11.80;99.90;;;;;;4959826;28;20054;-76
2023/06/01 07:46:13;;;;;;;42.50;33.53;;;12.00;99.90;;;;;;4966342;28;20098;-75
2023/06/01 07:48:40;;;;;;;37.60;33.55;;;11.90;99.90;;;;;;4957900;28;20042;-75
2023/06/01 07:51:07;;;;;;;41.83;32.55;;;12.00;99.90;;;;;;4964356;28;20042;-75
2023/06/01 07:53:35;;;;;;;37.33;33.20;;;11.90;99.90;;;;;;4964625;28;20066;-76
2023/06/01 07:56:02;;;;;;;44.88;32.45;;;11.90;99.90;;;;;;4965613;28;20457;-75
2023/06/01 07:58:29;;;;;;;36.67;32.72;;;12.00;99.90;;;;;;4971099;28;20047;-75
2023/06/01 08:00:56;;;;;;;34.75;31.23;;;12.30;99.90;;;;;;4964569;28;20054;-76
2023/06/01 08:03:25;;;;;;;36.08;32.30;;;12.50;99.90;;;;;;4969358;28;20055;-76
2023/06/01 08:05:57;;;;;;;38.03;34.15;;;12.80;99.90;;;;;;4968825;28;20496;-75
2023/06/01 08:08:24;;;;;;;38.03;34.50;;;13.00;99.90;;;;;;4971242;28;20046;-75
2023/06/01 08:10:51;;;;;;;39.15;34.20;;;13.00;99.90;;;;;;4966721;28;20592;-76
2023/06/01 08:13:20;;;;;;;41.47;33.15;;;12.80;99.90;;;;;;4964259;28;20046;-76
2023/06/01 08:15:47;;;;;;;36.72;33.10;;;13.00;99.90;;;;;;4964861;28;20078;-76
2023/06/01 08:18:15;;;;;;;41.00;34.25;;;13.00;99.90;;;;;;4972642;28;20038;-76
2023/06/01 08:20:42;;;;;;;38.92;33.95;;;13.00;99.90;;;;;;4959048;28;20051;-75
2023/06/01 08:23:08;;;;;;;37.58;33.28;;;13.00;99.90;;;;;;4974264;28;20170;-74
2023/06/01 08:25:36;;;;;;;37.65;33.78;;;13.20;99.90;;;;;;4962072;28;20101;-75
2023/06/01 08:28:03;;;;;;;36.83;33.15;;;13.10;99.90;;;;;;4969036;28;20046;-75
2023/06/01 08:30:31;;;;;;;39.28;34.38;;;12.70;99.90;;;;;;4965633;28;20050;-75
2023/06/01 08:32:57;;;;;;;37.67;33.70;;;12.60;99.90;;;;;;4972573;28;20093;-75
2023/06/01 08:35:25;;;;;;;35.92;32.00;;;12.60;99.90;;;;;;4969734;28;20185;-75
2023/06/01 08:37:51;;;;;;;37.60;33.90;;;12.60;99.90;;;;;;4965687;28;20097;-75
2023/06/01 08:40:18;;;;;;;37.13;33.45;;;12.80;99.90;;;;;;4970112;28;20323;-75
2023/06/01 08:42:45;;;;;;;37.50;33.53;;;12.70;99.90;;;;;;4966883;28;20058;-75
2023/06/01 08:45:13;;;;;;;37.63;33.97;;;12.70;99.90;;;;;;4971239;28;20109;-75
2023/06/01 08:47:41;;;;;;;37.92;34.05;;;12.90;99.90;;;;;;4960411;28;20071;-75
2023/06/01 08:50:11;;;;;;;40.03;33.65;;;12.90;99.90;;;;;;4963049;28;20042;-75
2023/06/01 08:52:41;;;;;;;37.83;34.05;;;13.20;99.90;;;;;;4971984;28;20062;-76
2023/06/01 08:55:08;;;;;;;38.40;34.42;;;13.30;99.90;;;;;;4969937;28;20038;-75
2023/06/01 08:57:35;;;;;;;39.40;35.20;;;13.30;99.90;;;;;;4969758;28;20054;-75
2023/06/01 09:00:02;;;;;;;45.75;36.25;;;13.30;99.90;;;;;;4965014;28;20338;-75
2023/06/01 09:02:29;;;;;;;38.25;34.22;;;13.30;99.90;;;;;;4964639;28;20069;-75
2023/06/01 09:04:56;;;;;;;39.08;35.08;;;13.10;99.90;;;;;;4969957;28;20058;-74
2023/06/01 09:07:23;;;;;;;39.88;35.55;;;13.10;99.90;;;;;;4971987;28;20148;-75
2023/06/01 09:09:50;;;;;;;38.25;34.20;;;13.10;99.90;;;;;;4966654;28;20038;-75
2023/06/01 09:12:30;;;;;;;38.72;34.67;;;13.00;99.90;;;;;;4982286;28;20104;-74
2023/06/01 09:15:16;;;;;;;39.55;35.33;;;13.10;99.90;;;;;;4965921;28;20043;-75
2023/06/01 09:17:46;;;;;;;39.20;35.38;;;13.30;99.90;;;;;;4966003;28;20080;-75
2023/06/01 09:20:26;;;;;;;41.50;37.30;;;13.40;99.90;;;;;;4966363;28;20046;-76
2023/06/01 09:22:54;;;;;;;40.65;36.58;;;13.40;99.90;;;;;;4968296;28;20100;-75
2023/06/01 09:25:34;;;;;;;41.58;37.42;;;13.50;99.90;;;;;;4966211;28;20460;-74
2023/06/01 09:28:02;;;;;;;41.90;37.47;;;13.20;99.90;;;;;;4963084;28;21165;-75
2023/06/01 09:30:43;;;;;;;46.00;36.33;;;13.20;99.90;;;;;;4983027;28;20351;-75
2023/06/01 09:33:13;;;;;;;41.33;37.03;;;13.50;99.90;;;;;;4964261;28;20054;-75
2023/06/01 09:35:48;;;;;;;43.17;38.50;;;13.50;99.90;;;;;;4964974;28;20049;-76
2023/06/01 09:38:25;;;;;;;42.28;38.05;;;13.50;99.90;;;;;;4966067;28;20114;-75
2023/06/01 09:40:58;;;;;;;40.17;36.22;;;13.60;99.90;;;;;;4955642;28;20434;-76
2023/06/01 09:43:25;;;;;;;40.58;36.33;;;13.40;99.90;;;;;;4971240;28;20046;-75
2023/06/01 09:46:14;;;;;;;42.17;38.08;;;13.60;99.90;;;;;;4962248;28;20099;-75
2023/06/01 09:48:43;;;;;;;42.40;37.92;;;13.70;99.90;;;;;;4989468;28;20042;-75
2023/06/01 09:51:31;;;;;;;43.47;37.78;;;13.90;99.90;;;;;;4978390;28;20061;-75
2023/06/01 09:53:57;;;;;;;41.85;37.42;;;14.00;99.90;;;;;;4967573;28;20118;-75
2023/06/01 09:56:25;;;;;;;43.60;38.85;;;14.10;99.90;;;;;;4966066;28;20030;-75
2023/06/01 09:58:58;;;;;;;44.47;39.92;;;14.20;99.90;;;;;;4965975;28;20141;-75
2023/06/01 10:01:29;;;;;;;43.13;38.95;;;14.40;99.90;;;;;;4965710;28;20584;-75
2023/06/01 10:03:58;;;;;;;44.70;39.83;;;14.50;99.90;;;;;;4961618;28;20058;-75
2023/06/01 10:06:25;;;;;;;44.67;40.22;;;14.50;99.90;;;;;;4967834;28;20457;-75
2023/06/01 10:08:52;;;;;;;44.40;39.65;;;14.50;99.90;;;;;;4966237;28;20141;-75
2023/06/01 10:11:19;;;;;;;45.65;40.95;;;14.60;99.90;;;;;;4965526;28;20390;-75
2023/06/01 10:13:47;;;;;;;45.42;41.05;;;14.50;99.90;;;;;;4962202;28;20050;-75
2023/06/01 10:16:13;;;;;;;45.45;40.67;;;14.80;99.90;;;;;;4965448;28;20381;-74
2023/06/01 10:18:41;;;;;;;49.13;42.33;;;14.80;99.90;;;;;;4960211;28;20059;-76
2023/06/01 10:21:08;;;;;;;43.78;39.45;;;14.90;99.90;;;;;;4967957;28;20070;-75
2023/06/01 10:23:35;;;;;;;45.72;41.10;;;14.90;99.90;;;;;;4979359;28;20054;-75
2023/06/01 10:26:12;;;;;;;45.85;41.20;;;15.20;99.90;;;;;;4966120;28;20124;-76
2023/06/01 10:28:40;;;;;;;46.10;41.33;;;15.20;99.90;;;;;;4973199;28;20541;-76
2023/06/01 10:31:33;;;;;;;45.17;40.47;;;15.10;99.90;;;;;;4967645;28;20038;-76
2023/06/01 10:34:00;;;;;;;45.15;40.38;;;14.90;99.90;;;;;;4962371;28;20054;-76
2023/06/01 10:36:52;;;;;;;46.17;40.75;;;15.00;99.90;;;;;;4965080;28;20459;-76
2023/06/01 10:39:29;;;;;;;46.03;41.47;;;15.10;99.90;;;;;;4962894;28;20042;-76
2023/06/01 10:41:58;;;;;;;45.30;40.45;;;15.10;99.90;;;;;;4965348;28;20042;-76
2023/06/01 10:44:40;;;;;;;43.20;39.13;;;15.10;99.90;;;;;;4973256;28;20508;-76
2023/06/01 10:47:13;;;;;;;42.85;38.80;;;15.40;99.90;;;;;;4960280;28;21623;-76
2023/06/01 10:49:49;;;;;;;46.65;42.05;;;15.50;99.90;;;;;;4966202;28;20043;-76
2023/06/01 10:52:35;;;;;;;41.90;37.95;;;15.60;99.90;;;;;;4964867;28;20133;-76
2023/06/01 10:55:13;;;;;;;45.75;41.25;;;15.80;99.90;;;;;;4957587;28;20125;-76
2023/06/01 10:57:43;;;;;;;43.65;39.75;;;16.00;99.90;;;;;;4969494;28;20129;-76
2023/06/01 11:00:15;;;;;;;42.95;38.78;;;16.20;99.90;;;;;;4959693;28;20050;-74
2023/06/01 11:02:52;;;;;;;43.10;38.78;;;16.50;99.90;;;;;;4964349;28;20054;-76
2023/06/01 11:05:39;;;;;;;43.22;39.10;;;16.60;99.90;;;;;;4968572;28;20046;-77
2023/06/01 11:08:28;;;;;;;42.25;38.08;;;16.40;99.90;;;;;;4971385;28;20085;-77
2023/06/01 11:10:56;;;;;;;44.08;40.00;;;16.30;99.90;;;;;;4977734;28;20094;-76
2023/06/01 11:13:27;;;;;;;43.17;38.67;;;16.10;99.90;;;;;;4990393;28;20566;-76
2023/06/01 11:16:10;;;;;;;41.50;37.65;;;16.00;99.90;;;;;;4968757;28;20105;-76
2023/06/01 11:18:57;;;;;;;43.55;39.33;;;16.10;99.90;;;;;;4963581;28;20481;-76
2023/06/01 11:21:28;;;;;;;43.47;39.15;;;16.20;99.90;;;;;;4984523;28;20042;-76
2023/06/01 11:23:57;;;;;;;42.05;38.42;;;16.10;99.90;;;;;;4943671;28;20078;-76
2023/06/01 11:26:36;;;;;;;41.78;37.63;;;15.90;99.90;;;;;;4969546;28;20464;-76
2023/06/01 11:29:06;;;;;;;42.08;38.20;;;15.90;99.90;;;;;;4964444;28;20121;-76
2023/06/01 11:31:38;;;;;;;41.45;37.70;;;15.80;99.90;;;;;;4965758;28;20067;-76
2023/06/01 11:34:07;;;;;;;40.40;36.83;;;15.80;99.90;;;;;;4962076;28;20043;-76
2023/06/01 11:36:42;;;;;;;41.20;36.92;;;15.90;99.90;;;;;;4965464;28;20121;-76
2023/06/01 11:39:28;;;;;;;39.40;35.97;;;16.10;99.90;;;;;;4975829;28;20842;-74
2023/06/01 11:42:08;;;;;;;39.03;35.40;;;16.20;99.90;;;;;;4975047;28;20070;-75
2023/06/01 11:44:37;;;;;;;39.50;35.33;;;16.30;99.90;;;;;;4966264;28;20141;-75
2023/06/01 11:47:08;;;;;;;43.00;39.38;;;16.50;99.90;;;;;;4964921;28;20583;-75
2023/06/01 11:49:49;;;;;;;40.63;36.80;;;16.70;99.90;;;;;;4981958;28;21488;-74
2023/06/01 11:52:17;;;;;;;42.42;38.55;;;17.10;99.90;;;;;;4967517;28;20043;-74
2023/06/01 11:54:45;;;;;;;42.08;38.33;;;16.50;99.90;;;;;;4967695;28;20046;-75
2023/06/01 11:57:12;;;;;;;40.90;36.88;;;16.20;99.90;;;;;;4962572;28;20815;-78
2023/06/01 11:59:47;;;;;;;41.33;37.35;;;16.50;99.90;;;;;;4963204;28;20038;-76
2023/06/01 12:02:22;;;;;;;40.95;37.42;;;16.40;99.90;;;;;;4957240;28;20070;-76
2023/06/01 12:05:08;;;;;;;41.85;37.78;;;16.50;99.90;;;;;;4964314;28;20046;-76
2023/06/01 12:07:47;;;;;;;40.67;36.92;;;16.50;99.90;;;;;;4960949;28;20077;-76
2023/06/01 12:10:17;;;;;;;44.65;39.92;;;16.40;99.90;;;;;;4960033;28;20039;-77
2023/06/01 12:12:45;;;;;;;41.95;38.00;;;16.60;99.90;;;;;;4982216;28;20042;-76
2023/06/01 12:15:16;;;;;;;42.22;38.30;;;16.90;99.90;;;;;;4958983;28;20137;-76
2023/06/01 12:17:47;;;;;;;42.40;38.30;;;16.90;99.90;;;;;;4966263;28;20346;-75
2023/06/01 12:20:37;;;;;;;42.50;38.35;;;16.90;99.90;;;;;;4964990;28;20535;-77
2023/06/01 12:23:12;;;;;;;41.92;38.13;;;16.90;99.90;;;;;;4977707;28;20150;-76
2023/06/01 12:26:06;;;;;;;41.90;38.08;;;17.00;99.90;;;;;;4970293;28;20046;-75
2023/06/01 12:28:54;;;;;;;39.55;35.88;;;17.10;99.90;;;;;;4962253;28;20069;-76
2023/06/01 12:31:27;;;;;;;40.25;36.50;;;17.50;99.90;;;;;;4961103;28;20057;-75
2023/06/01 12:33:55;;;;;;;40.38;36.88;;;17.20;99.90;;;;;;4964767;28;20136;-76
2023/06/01 12:36:35;;;;;;;40.13;36.28;;;17.10;99.90;;;;;;4965979;28;20098;-75
2023/06/01 12:39:04;;;;;;;38.80;35.45;;;17.00;99.90;;;;;;4962850;28;20047;-75
2023/06/01 12:41:32;;;;;;;39.97;36.35;;;16.90;99.90;;;;;;4970102;28;20043;-75
2023/06/01 12:43:58;;;;;;;40.60;36.78;;;16.80;99.90;;;;;;4963913;28;20078;-76
2023/06/01 12:46:27;;;;;;;38.38;34.85;;;16.70;99.90;;;;;;4959681;28;20629;-75